sensor_id;sensor_type;location;lat;lon;timestamp;P1;durP1;ratioP1;P2;durP2;ratioP2
3379;SDS011;1703;51.964;7.642;2023-06-10T00:02:04;11.00;;;6.70;;
3379;SDS011;1703;51.964;7.642;2023-06-10T00:04:32;9.50;;;6.27;;
3379;SDS011;1703;51.964;7.642;2023-06-10T00:06:59;10.10;;;6.70;;
3379;SDS011;1703;51.964;7.642;2023-06-10T00:09:26;6.00;;;5.50;;
3379;SDS011;1703;51.964;7.642;2023-06-10T00:11:54;7.83;;;6.40;;
3379;SDS011;1703;51.964;7.642;2023-06-10T00:14:22;7.63;;;6.50;;
3379;SDS011;1703;51.964;7.642;2023-06-10T00:16:49;5.97;;;5.40;;
3379;SDS011;1703;51.964;7.642;2023-06-10T00:19:17;17.83;;;6.77;;
3379;SDS011;1703;51.964;7.642;2023-06-10T00:21:44;10.80;;;7.90;;
3379;SDS011;1703;51.964;7.642;2023-06-10T00:24:11;7.47;;;6.60;;
3379;SDS011;1703;51.964;7.642;2023-06-10T00:26:38;9.27;;;6.10;;
3379;SDS011;1703;51.964;7.642;2023-06-10T00:29:05;7.60;;;6.23;;
3379;SDS011;1703;51.964;7.642;2023-06-10T00:31:35;8.13;;;7.30;;
3379;SDS011;1703;51.964;7.642;2023-06-10T00:34:05;9.67;;;6.10;;
3379;SDS011;1703;51.964;7.642;2023-06-10T00:36:33;12.60;;;5.63;;
3379;SDS011;1703;51.964;7.642;2023-06-10T00:39:00;8.23;;;6.00;;
3379;SDS011;1703;51.964;7.642;2023-06-10T00:41:29;7.93;;;6.80;;
3379;SDS011;1703;51.964;7.642;2023-06-10T00:43:56;7.47;;;6.23;;
3379;SDS011;1703;51.964;7.642;2023-06-10T00:46:23;15.53;;;6.57;;
3379;SDS011;1703;51.964;7.642;2023-06-10T00:48:53;15.03;;;6.80;;
3379;SDS011;1703;51.964;7.642;2023-06-10T00:51:20;9.17;;;6.93;;
3379;SDS011;1703;51.964;7.642;2023-06-10T00:53:47;9.53;;;6.87;;
3379;SDS011;1703;51.964;7.642;2023-06-10T00:56:15;9.93;;;5.70;;
3379;SDS011;1703;51.964;7.642;2023-06-10T00:58:42;11.93;;;6.33;;
3379;SDS011;1703;51.964;7.642;2023-06-10T01:01:09;7.43;;;6.60;;
3379;SDS011;1703;51.964;7.642;2023-06-10T01:03:37;12.63;;;6.50;;
3379;SDS011;1703;51.964;7.642;2023-06-10T01:06:08;11.43;;;6.07;;
3379;SDS011;1703;51.964;7.642;2023-06-10T01:08:46;9.97;;;6.93;;
3379;SDS011;1703;51.964;7.642;2023-06-10T01:11:21;9.17;;;6.03;;
3379;SDS011;1703;51.964;7.642;2023-06-10T01:13:54;11.40;;;6.00;;
3379;SDS011;1703;51.964;7.642;2023-06-10T01:16:22;11.50;;;6.60;;
3379;SDS011;1703;51.964;7.642;2023-06-10T01:18:50;10.67;;;6.03;;
3379;SDS011;1703;51.964;7.642;2023-06-10T01:21:20;7.33;;;6.30;;
3379;SDS011;1703;51.964;7.642;2023-06-10T01:23:49;8.73;;;7.80;;
3379;SDS011;1703;51.964;7.642;2023-06-10T01:26:17;7.67;;;6.87;;
3379;SDS011;1703;51.964;7.642;2023-06-10T01:28:47;8.33;;;6.20;;
3379;SDS011;1703;51.964;7.642;2023-06-10T01:31:20;14.70;;;6.67;;
3379;SDS011;1703;51.964;7.642;2023-06-10T01:33:58;11.43;;;5.80;;
3379;SDS011;1703;51.964;7.642;2023-06-10T01:36:28;7.47;;;6.20;;
3379;SDS011;1703;51.964;7.642;2023-06-10T01:38:59;6.67;;;5.90;;
3379;SDS011;1703;51.964;7.642;2023-06-10T01:44:39;10.10;;;6.77;;
3379;SDS011;1703;51.964;7.642;2023-06-10T01:47:07;8.23;;;6.10;;
3379;SDS011;1703;51.964;7.642;2023-06-10T01:49:34;10.30;;;6.33;;
3379;SDS011;1703;51.964;7.642;2023-06-10T01:52:02;8.93;;;6.40;;
3379;SDS011;1703;51.964;7.642;2023-06-10T01:54:32;10.40;;;6.00;;
3379;SDS011;1703;51.964;7.642;2023-06-10T01:56:59;9.10;;;6.40;;
3379;SDS011;1703;51.964;7.642;2023-06-10T01:59:27;6.97;;;5.80;;
3379;SDS011;1703;51.964;7.642;2023-06-10T02:01:53;15.30;;;6.93;;
3379;SDS011;1703;51.964;7.642;2023-06-10T02:04:20;8.60;;;6.67;;
3379;SDS011;1703;51.964;7.642;2023-06-10T02:06:47;8.83;;;7.53;;
3379;SDS011;1703;51.964;7.642;2023-06-10T02:09:16;9.87;;;6.30;;
3379;SDS011;1703;51.964;7.642;2023-06-10T02:11:44;18.50;;;6.60;;
3379;SDS011;1703;51.964;7.642;2023-06-10T02:14:11;7.40;;;6.00;;
3379;SDS011;1703;51.964;7.642;2023-06-10T02:16:38;13.43;;;7.60;;
3379;SDS011;1703;51.964;7.642;2023-06-10T02:19:04;12.30;;;7.63;;
3379;SDS011;1703;51.964;7.642;2023-06-10T02:21:32;6.80;;;6.10;;
3379;SDS011;1703;51.964;7.642;2023-06-10T02:23:59;9.90;;;8.00;;
3379;SDS011;1703;51.964;7.642;2023-06-10T02:26:28;9.67;;;8.30;;
3379;SDS011;1703;51.964;7.642;2023-06-10T02:28:58;8.97;;;6.90;;
3379;SDS011;1703;51.964;7.642;2023-06-10T02:31:26;9.87;;;6.30;;
3379;SDS011;1703;51.964;7.642;2023-06-10T02:33:54;12.10;;;6.63;;
3379;SDS011;1703;51.964;7.642;2023-06-10T02:36:21;9.53;;;7.10;;
3379;SDS011;1703;51.964;7.642;2023-06-10T02:38:49;12.13;;;7.03;;
3379;SDS011;1703;51.964;7.642;2023-06-10T02:41:17;9.00;;;6.63;;
3379;SDS011;1703;51.964;7.642;2023-06-10T02:43:46;11.03;;;7.27;;
3379;SDS011;1703;51.964;7.642;2023-06-10T02:46:13;13.17;;;6.80;;
3379;SDS011;1703;51.964;7.642;2023-06-10T02:48:42;9.73;;;6.30;;
3379;SDS011;1703;51.964;7.642;2023-06-10T02:51:11;9.13;;;6.70;;
3379;SDS011;1703;51.964;7.642;2023-06-10T02:53:42;10.97;;;6.97;;
3379;SDS011;1703;51.964;7.642;2023-06-10T02:56:11;9.57;;;7.10;;
3379;SDS011;1703;51.964;7.642;2023-06-10T02:58:38;10.77;;;6.77;;
3379;SDS011;1703;51.964;7.642;2023-06-10T03:01:08;8.77;;;6.87;;
3379;SDS011;1703;51.964;7.642;2023-06-10T03:03:53;9.57;;;6.97;;
3379;SDS011;1703;51.964;7.642;2023-06-10T03:06:21;11.70;;;7.23;;
3379;SDS011;1703;51.964;7.642;2023-06-10T03:08:52;8.77;;;6.30;;
3379;SDS011;1703;51.964;7.642;2023-06-10T03:11:19;13.77;;;6.33;;
3379;SDS011;1703;51.964;7.642;2023-06-10T03:13:47;11.23;;;7.70;;
3379;SDS011;1703;51.964;7.642;2023-06-10T03:16:17;16.83;;;6.60;;
3379;SDS011;1703;51.964;7.642;2023-06-10T03:18:45;7.10;;;6.40;;
3379;SDS011;1703;51.964;7.642;2023-06-10T03:21:12;7.23;;;6.53;;
3379;SDS011;1703;51.964;7.642;2023-06-10T03:23:39;9.87;;;5.93;;
3379;SDS011;1703;51.964;7.642;2023-06-10T03:26:05;10.40;;;6.23;;
3379;SDS011;1703;51.964;7.642;2023-06-10T03:28:35;8.57;;;6.53;;
3379;SDS011;1703;51.964;7.642;2023-06-10T03:31:02;8.30;;;7.20;;
3379;SDS011;1703;51.964;7.642;2023-06-10T03:33:32;11.77;;;6.00;;
3379;SDS011;1703;51.964;7.642;2023-06-10T03:36:01;11.13;;;6.90;;
3379;SDS011;1703;51.964;7.642;2023-06-10T03:38:28;10.37;;;6.50;;
3379;SDS011;1703;51.964;7.642;2023-06-10T03:40:56;11.23;;;6.67;;
3379;SDS011;1703;51.964;7.642;2023-06-10T03:43:23;7.17;;;6.07;;
3379;SDS011;1703;51.964;7.642;2023-06-10T03:45:51;14.30;;;8.27;;
3379;SDS011;1703;51.964;7.642;2023-06-10T03:48:18;10.47;;;8.40;;
3379;SDS011;1703;51.964;7.642;2023-06-10T03:50:51;13.97;;;7.13;;
3379;SDS011;1703;51.964;7.642;2023-06-10T03:53:19;12.80;;;7.53;;
3379;SDS011;1703;51.964;7.642;2023-06-10T03:55:46;8.67;;;6.70;;
3379;SDS011;1703;51.964;7.642;2023-06-10T03:58:15;10.03;;;7.40;;
3379;SDS011;1703;51.964;7.642;2023-06-10T04:00:43;10.33;;;6.00;;
3379;SDS011;1703;51.964;7.642;2023-06-10T04:03:10;10.77;;;6.77;;
3379;SDS011;1703;51.964;7.642;2023-06-10T04:05:42;10.20;;;7.57;;
3379;SDS011;1703;51.964;7.642;2023-06-10T04:08:10;11.07;;;7.20;;
3379;SDS011;1703;51.964;7.642;2023-06-10T04:10:37;11.43;;;6.60;;
3379;SDS011;1703;51.964;7.642;2023-06-10T04:13:04;8.67;;;6.33;;
3379;SDS011;1703;51.964;7.642;2023-06-10T04:15:37;10.10;;;7.57;;
3379;SDS011;1703;51.964;7.642;2023-06-10T04:18:09;9.77;;;6.60;;
3379;SDS011;1703;51.964;7.642;2023-06-10T04:20:36;10.90;;;6.87;;
3379;SDS011;1703;51.964;7.642;2023-06-10T04:23:03;8.10;;;6.63;;
3379;SDS011;1703;51.964;7.642;2023-06-10T04:25:32;9.30;;;6.90;;
3379;SDS011;1703;51.964;7.642;2023-06-10T04:27:58;10.07;;;6.30;;
3379;SDS011;1703;51.964;7.642;2023-06-10T04:30:26;8.50;;;6.77;;
3379;SDS011;1703;51.964;7.642;2023-06-10T04:32:58;7.60;;;5.70;;
3379;SDS011;1703;51.964;7.642;2023-06-10T04:35:25;9.03;;;7.13;;
3379;SDS011;1703;51.964;7.642;2023-06-10T04:37:54;9.37;;;7.57;;
3379;SDS011;1703;51.964;7.642;2023-06-10T04:40:22;12.00;;;7.20;;
3379;SDS011;1703;51.964;7.642;2023-06-10T04:42:50;6.53;;;5.93;;
3379;SDS011;1703;51.964;7.642;2023-06-10T04:45:17;6.97;;;5.80;;
3379;SDS011;1703;51.964;7.642;2023-06-10T04:47:44;7.97;;;6.73;;
3379;SDS011;1703;51.964;7.642;2023-06-10T04:50:11;9.03;;;5.80;;
3379;SDS011;1703;51.964;7.642;2023-06-10T04:52:38;16.17;;;6.63;;
3379;SDS011;1703;51.964;7.642;2023-06-10T04:55:07;9.90;;;7.00;;
3379;SDS011;1703;51.964;7.642;2023-06-10T04:57:35;7.70;;;7.00;;
3379;SDS011;1703;51.964;7.642;2023-06-10T05:00:03;7.13;;;5.83;;
3379;SDS011;1703;51.964;7.642;2023-06-10T05:02:31;11.53;;;5.93;;
3379;SDS011;1703;51.964;7.642;2023-06-10T05:04:58;12.60;;;6.00;;
3379;SDS011;1703;51.964;7.642;2023-06-10T05:07:25;9.93;;;6.80;;
3379;SDS011;1703;51.964;7.642;2023-06-10T05:09:51;9.40;;;5.90;;
3379;SDS011;1703;51.964;7.642;2023-06-10T05:12:18;7.80;;;5.30;;
3379;SDS011;1703;51.964;7.642;2023-06-10T05:14:45;7.93;;;6.00;;
3379;SDS011;1703;51.964;7.642;2023-06-10T05:17:13;10.47;;;6.00;;
3379;SDS011;1703;51.964;7.642;2023-06-10T05:19:40;8.03;;;5.60;;
3379;SDS011;1703;51.964;7.642;2023-06-10T05:22:08;8.30;;;5.20;;
3379;SDS011;1703;51.964;7.642;2023-06-10T05:24:35;9.10;;;5.13;;
3379;SDS011;1703;51.964;7.642;2023-06-10T05:27:02;7.53;;;6.30;;
3379;SDS011;1703;51.964;7.642;2023-06-10T05:29:30;9.53;;;5.60;;
3379;SDS011;1703;51.964;7.642;2023-06-10T05:31:57;11.40;;;5.17;;
3379;SDS011;1703;51.964;7.642;2023-06-10T05:34:29;10.50;;;5.10;;
3379;SDS011;1703;51.964;7.642;2023-06-10T05:36:57;5.83;;;4.53;;
3379;SDS011;1703;51.964;7.642;2023-06-10T05:39:23;10.70;;;5.53;;
3379;SDS011;1703;51.964;7.642;2023-06-10T05:41:50;7.50;;;5.40;;
3379;SDS011;1703;51.964;7.642;2023-06-10T05:44:17;11.50;;;6.10;;
3379;SDS011;1703;51.964;7.642;2023-06-10T05:46:47;4.93;;;4.53;;
3379;SDS011;1703;51.964;7.642;2023-06-10T05:49:16;11.13;;;5.40;;
3379;SDS011;1703;51.964;7.642;2023-06-10T05:52:06;7.33;;;5.23;;
3379;SDS011;1703;51.964;7.642;2023-06-10T05:54:33;6.23;;;4.87;;
3379;SDS011;1703;51.964;7.642;2023-06-10T05:57:16;14.47;;;5.60;;
3379;SDS011;1703;51.964;7.642;2023-06-10T05:59:43;4.63;;;4.17;;
3379;SDS011;1703;51.964;7.642;2023-06-10T06:02:10;5.40;;;4.50;;
3379;SDS011;1703;51.964;7.642;2023-06-10T06:04:37;5.90;;;4.80;;
3379;SDS011;1703;51.964;7.642;2023-06-10T06:07:04;16.00;;;4.67;;
3379;SDS011;1703;51.964;7.642;2023-06-10T06:09:32;5.90;;;5.17;;
3379;SDS011;1703;51.964;7.642;2023-06-10T06:11:59;10.40;;;5.10;;
3379;SDS011;1703;51.964;7.642;2023-06-10T06:14:26;9.40;;;5.30;;
3379;SDS011;1703;51.964;7.642;2023-06-10T06:16:52;5.10;;;4.53;;
3379;SDS011;1703;51.964;7.642;2023-06-10T06:19:19;8.73;;;4.37;;
3379;SDS011;1703;51.964;7.642;2023-06-10T06:21:46;6.33;;;4.63;;
3379;SDS011;1703;51.964;7.642;2023-06-10T06:24:15;9.47;;;5.30;;
3379;SDS011;1703;51.964;7.642;2023-06-10T06:26:42;7.80;;;4.93;;
3379;SDS011;1703;51.964;7.642;2023-06-10T06:29:09;8.07;;;4.33;;
3379;SDS011;1703;51.964;7.642;2023-06-10T06:31:35;6.67;;;4.37;;
3379;SDS011;1703;51.964;7.642;2023-06-10T06:34:02;9.33;;;4.40;;
3379;SDS011;1703;51.964;7.642;2023-06-10T06:36:29;7.00;;;4.10;;
3379;SDS011;1703;51.964;7.642;2023-06-10T06:38:56;11.67;;;4.07;;
3379;SDS011;1703;51.964;7.642;2023-06-10T06:41:25;7.07;;;4.70;;
3379;SDS011;1703;51.964;7.642;2023-06-10T06:43:53;6.93;;;5.00;;
3379;SDS011;1703;51.964;7.642;2023-06-10T06:46:24;7.20;;;4.97;;
3379;SDS011;1703;51.964;7.642;2023-06-10T06:48:50;7.10;;;4.07;;
3379;SDS011;1703;51.964;7.642;2023-06-10T06:51:17;4.13;;;3.27;;
3379;SDS011;1703;51.964;7.642;2023-06-10T06:53:44;5.03;;;3.67;;
3379;SDS011;1703;51.964;7.642;2023-06-10T06:56:11;9.60;;;4.50;;
3379;SDS011;1703;51.964;7.642;2023-06-10T06:58:39;7.87;;;4.10;;
3379;SDS011;1703;51.964;7.642;2023-06-10T07:01:06;10.50;;;3.90;;
3379;SDS011;1703;51.964;7.642;2023-06-10T07:03:33;7.87;;;3.60;;
3379;SDS011;1703;51.964;7.642;2023-06-10T07:06:00;9.90;;;4.83;;
3379;SDS011;1703;51.964;7.642;2023-06-10T07:08:27;3.80;;;3.33;;
3379;SDS011;1703;51.964;7.642;2023-06-10T07:10:54;11.17;;;4.93;;
3379;SDS011;1703;51.964;7.642;2023-06-10T07:13:20;6.50;;;4.20;;
3379;SDS011;1703;51.964;7.642;2023-06-10T07:15:48;8.17;;;3.90;;
3379;SDS011;1703;51.964;7.642;2023-06-10T07:18:15;6.60;;;4.83;;
3379;SDS011;1703;51.964;7.642;2023-06-10T07:20:42;4.90;;;4.30;;
3379;SDS011;1703;51.964;7.642;2023-06-10T07:23:09;6.97;;;3.70;;
3379;SDS011;1703;51.964;7.642;2023-06-10T07:25:36;7.47;;;4.50;;
3379;SDS011;1703;51.964;7.642;2023-06-10T07:28:03;4.73;;;4.20;;
3379;SDS011;1703;51.964;7.642;2023-06-10T07:30:30;4.83;;;3.97;;
3379;SDS011;1703;51.964;7.642;2023-06-10T07:32:58;4.80;;;3.90;;
3379;SDS011;1703;51.964;7.642;2023-06-10T07:35:25;7.23;;;3.97;;
3379;SDS011;1703;51.964;7.642;2023-06-10T07:37:51;6.30;;;4.07;;
3379;SDS011;1703;51.964;7.642;2023-06-10T07:40:18;11.00;;;4.00;;
3379;SDS011;1703;51.964;7.642;2023-06-10T07:42:45;7.53;;;3.83;;
3379;SDS011;1703;51.964;7.642;2023-06-10T07:45:12;5.03;;;4.00;;
3379;SDS011;1703;51.964;7.642;2023-06-10T07:47:39;6.20;;;4.27;;
3379;SDS011;1703;51.964;7.642;2023-06-10T07:50:07;7.10;;;4.60;;
3379;SDS011;1703;51.964;7.642;2023-06-10T07:52:35;7.70;;;4.73;;
3379;SDS011;1703;51.964;7.642;2023-06-10T07:55:02;4.40;;;3.23;;
3379;SDS011;1703;51.964;7.642;2023-06-10T07:57:29;7.57;;;4.50;;
3379;SDS011;1703;51.964;7.642;2023-06-10T07:59:56;6.80;;;3.93;;
3379;SDS011;1703;51.964;7.642;2023-06-10T08:02:25;5.47;;;3.93;;
3379;SDS011;1703;51.964;7.642;2023-06-10T08:04:52;5.37;;;4.43;;
3379;SDS011;1703;51.964;7.642;2023-06-10T08:07:20;7.97;;;3.60;;
3379;SDS011;1703;51.964;7.642;2023-06-10T08:09:47;7.50;;;3.90;;
3379;SDS011;1703;51.964;7.642;2023-06-10T08:12:14;14.20;;;4.53;;
3379;SDS011;1703;51.964;7.642;2023-06-10T08:14:43;6.17;;;4.00;;
3379;SDS011;1703;51.964;7.642;2023-06-10T08:17:10;3.93;;;3.53;;
3379;SDS011;1703;51.964;7.642;2023-06-10T08:19:37;7.00;;;3.90;;
3379;SDS011;1703;51.964;7.642;2023-06-10T08:22:04;6.70;;;3.80;;
3379;SDS011;1703;51.964;7.642;2023-06-10T08:24:32;4.30;;;3.83;;
3379;SDS011;1703;51.964;7.642;2023-06-10T08:26:59;6.17;;;4.97;;
3379;SDS011;1703;51.964;7.642;2023-06-10T08:29:26;6.40;;;5.17;;
3379;SDS011;1703;51.964;7.642;2023-06-10T08:31:54;5.47;;;3.90;;
3379;SDS011;1703;51.964;7.642;2023-06-10T08:34:21;4.77;;;4.33;;
3379;SDS011;1703;51.964;7.642;2023-06-10T08:36:48;7.67;;;4.60;;
3379;SDS011;1703;51.964;7.642;2023-06-10T08:39:18;7.97;;;3.57;;
3379;SDS011;1703;51.964;7.642;2023-06-10T08:41:48;5.80;;;4.80;;
3379;SDS011;1703;51.964;7.642;2023-06-10T08:44:22;7.57;;;4.60;;
3379;SDS011;1703;51.964;7.642;2023-06-10T08:46:55;4.90;;;4.43;;
3379;SDS011;1703;51.964;7.642;2023-06-10T08:49:24;5.03;;;4.47;;
3379;SDS011;1703;51.964;7.642;2023-06-10T08:51:54;6.53;;;5.47;;
3379;SDS011;1703;51.964;7.642;2023-06-10T08:54:25;7.00;;;4.70;;
3379;SDS011;1703;51.964;7.642;2023-06-10T08:56:57;4.93;;;3.70;;
3379;SDS011;1703;51.964;7.642;2023-06-10T08:59:27;4.60;;;3.43;;
3379;SDS011;1703;51.964;7.642;2023-06-10T09:01:54;5.57;;;4.97;;
3379;SDS011;1703;51.964;7.642;2023-06-10T09:04:21;5.33;;;3.90;;
3379;SDS011;1703;51.964;7.642;2023-06-10T09:06:50;4.57;;;4.13;;
3379;SDS011;1703;51.964;7.642;2023-06-10T09:09:18;5.50;;;4.30;;
3379;SDS011;1703;51.964;7.642;2023-06-10T09:11:45;5.10;;;3.80;;
3379;SDS011;1703;51.964;7.642;2023-06-10T09:14:14;7.77;;;5.27;;
3379;SDS011;1703;51.964;7.642;2023-06-10T09:16:41;6.33;;;3.90;;
3379;SDS011;1703;51.964;7.642;2023-06-10T09:19:08;8.47;;;4.13;;
3379;SDS011;1703;51.964;7.642;2023-06-10T09:21:39;6.03;;;3.97;;
3379;SDS011;1703;51.964;7.642;2023-06-10T09:24:06;6.17;;;4.37;;
3379;SDS011;1703;51.964;7.642;2023-06-10T09:26:33;4.93;;;4.20;;
3379;SDS011;1703;51.964;7.642;2023-06-10T09:29:03;10.60;;;4.20;;
3379;SDS011;1703;51.964;7.642;2023-06-10T09:31:32;9.63;;;4.67;;
3379;SDS011;1703;51.964;7.642;2023-06-10T09:34:04;5.83;;;4.70;;
3379;SDS011;1703;51.964;7.642;2023-06-10T09:36:33;10.53;;;4.57;;
3379;SDS011;1703;51.964;7.642;2023-06-10T09:38:59;9.63;;;4.90;;
3379;SDS011;1703;51.964;7.642;2023-06-10T09:41:31;7.43;;;5.10;;
3379;SDS011;1703;51.964;7.642;2023-06-10T09:43:59;11.50;;;5.40;;
3379;SDS011;1703;51.964;7.642;2023-06-10T09:46:25;6.43;;;4.80;;
3379;SDS011;1703;51.964;7.642;2023-06-10T09:48:58;6.20;;;5.60;;
3379;SDS011;1703;51.964;7.642;2023-06-10T09:51:25;7.10;;;4.70;;
3379;SDS011;1703;51.964;7.642;2023-06-10T09:53:53;7.23;;;4.40;;
3379;SDS011;1703;51.964;7.642;2023-06-10T09:56:20;16.10;;;5.23;;
3379;SDS011;1703;51.964;7.642;2023-06-10T09:58:49;5.93;;;5.10;;
3379;SDS011;1703;51.964;7.642;2023-06-10T10:01:19;6.00;;;4.60;;
3379;SDS011;1703;51.964;7.642;2023-06-10T10:03:49;7.93;;;4.33;;
3379;SDS011;1703;51.964;7.642;2023-06-10T10:06:17;8.60;;;6.50;;
3379;SDS011;1703;51.964;7.642;2023-06-10T10:08:45;5.57;;;4.47;;
3379;SDS011;1703;51.964;7.642;2023-06-10T10:11:13;6.73;;;4.60;;
3379;SDS011;1703;51.964;7.642;2023-06-10T10:13:42;24.20;;;5.80;;
3379;SDS011;1703;51.964;7.642;2023-06-10T10:16:15;6.37;;;5.33;;
3379;SDS011;1703;51.964;7.642;2023-06-10T10:18:43;4.37;;;3.97;;
3379;SDS011;1703;51.964;7.642;2023-06-10T10:21:16;5.30;;;4.80;;
3379;SDS011;1703;51.964;7.642;2023-06-10T10:23:49;6.30;;;5.30;;
3379;SDS011;1703;51.964;7.642;2023-06-10T10:26:21;5.80;;;5.00;;
3379;SDS011;1703;51.964;7.642;2023-06-10T10:28:51;4.83;;;4.33;;
3379;SDS011;1703;51.964;7.642;2023-06-10T10:31:24;5.97;;;4.37;;
3379;SDS011;1703;51.964;7.642;2023-06-10T10:33:57;10.07;;;5.10;;
3379;SDS011;1703;51.964;7.642;2023-06-10T10:36:26;5.70;;;4.17;;
3379;SDS011;1703;51.964;7.642;2023-06-10T10:38:54;5.03;;;4.43;;
3379;SDS011;1703;51.964;7.642;2023-06-10T10:41:22;5.20;;;4.67;;
3379;SDS011;1703;51.964;7.642;2023-06-10T10:43:51;7.70;;;4.83;;
3379;SDS011;1703;51.964;7.642;2023-06-10T10:46:19;6.47;;;4.87;;
3379;SDS011;1703;51.964;7.642;2023-06-10T10:48:49;5.60;;;5.10;;
3379;SDS011;1703;51.964;7.642;2023-06-10T10:51:18;6.63;;;5.03;;
3379;SDS011;1703;51.964;7.642;2023-06-10T10:56:39;5.40;;;4.90;;
3379;SDS011;1703;51.964;7.642;2023-06-10T10:59:26;6.40;;;4.97;;
3379;SDS011;1703;51.964;7.642;2023-06-10T11:02:09;7.93;;;4.50;;
3379;SDS011;1703;51.964;7.642;2023-06-10T11:04:36;9.93;;;5.10;;
3379;SDS011;1703;51.964;7.642;2023-06-10T11:07:05;7.27;;;4.53;;
3379;SDS011;1703;51.964;7.642;2023-06-10T11:09:34;6.93;;;4.93;;
3379;SDS011;1703;51.964;7.642;2023-06-10T11:12:00;7.47;;;4.93;;
3379;SDS011;1703;51.964;7.642;2023-06-10T11:14:28;11.93;;;5.10;;
3379;SDS011;1703;51.964;7.642;2023-06-10T11:16:56;6.77;;;4.00;;
3379;SDS011;1703;51.964;7.642;2023-06-10T11:19:33;7.50;;;5.77;;
3379;SDS011;1703;51.964;7.642;2023-06-10T11:22:01;5.10;;;4.60;;
3379;SDS011;1703;51.964;7.642;2023-06-10T11:24:29;6.53;;;5.20;;
3379;SDS011;1703;51.964;7.642;2023-06-10T11:29:57;8.33;;;5.23;;
3379;SDS011;1703;51.964;7.642;2023-06-10T11:32:25;6.77;;;5.17;;
3379;SDS011;1703;51.964;7.642;2023-06-10T11:34:56;5.87;;;4.90;;
3379;SDS011;1703;51.964;7.642;2023-06-10T11:37:23;5.93;;;5.33;;
3379;SDS011;1703;51.964;7.642;2023-06-10T11:39:51;7.97;;;5.63;;
3379;SDS011;1703;51.964;7.642;2023-06-10T11:42:20;6.80;;;5.53;;
3379;SDS011;1703;51.964;7.642;2023-06-10T11:44:48;12.50;;;6.40;;
3379;SDS011;1703;51.964;7.642;2023-06-10T11:47:16;9.20;;;5.73;;
3379;SDS011;1703;51.964;7.642;2023-06-10T11:49:43;6.40;;;5.37;;
3379;SDS011;1703;51.964;7.642;2023-06-10T11:52:10;7.43;;;5.00;;
3379;SDS011;1703;51.964;7.642;2023-06-10T11:54:37;6.23;;;5.30;;
3379;SDS011;1703;51.964;7.642;2023-06-10T11:57:04;7.70;;;4.70;;
3379;SDS011;1703;51.964;7.642;2023-06-10T11:59:35;8.67;;;5.10;;
3379;SDS011;1703;51.964;7.642;2023-06-10T12:02:02;8.53;;;7.03;;
3379;SDS011;1703;51.964;7.642;2023-06-10T12:04:29;5.40;;;4.90;;
3379;SDS011;1703;51.964;7.642;2023-06-10T12:06:56;7.03;;;5.80;;
3379;SDS011;1703;51.964;7.642;2023-06-10T12:09:23;8.13;;;5.47;;
3379;SDS011;1703;51.964;7.642;2023-06-10T12:11:51;6.03;;;5.17;;
3379;SDS011;1703;51.964;7.642;2023-06-10T12:17:21;7.50;;;4.97;;
3379;SDS011;1703;51.964;7.642;2023-06-10T12:19:48;6.80;;;4.90;;
3379;SDS011;1703;51.964;7.642;2023-06-10T12:22:16;6.80;;;6.17;;
3379;SDS011;1703;51.964;7.642;2023-06-10T12:24:44;10.70;;;5.87;;
3379;SDS011;1703;51.964;7.642;2023-06-10T12:27:12;12.20;;;6.53;;
3379;SDS011;1703;51.964;7.642;2023-06-10T12:29:39;8.10;;;4.97;;
3379;SDS011;1703;51.964;7.642;2023-06-10T12:32:07;9.30;;;5.73;;
3379;SDS011;1703;51.964;7.642;2023-06-10T12:34:36;5.90;;;5.30;;
3379;SDS011;1703;51.964;7.642;2023-06-10T12:37:04;12.57;;;5.47;;
3379;SDS011;1703;51.964;7.642;2023-06-10T12:39:33;7.17;;;6.30;;
3379;SDS011;1703;51.964;7.642;2023-06-10T12:42:00;6.70;;;5.83;;
3379;SDS011;1703;51.964;7.642;2023-06-10T12:44:30;6.30;;;5.70;;
3379;SDS011;1703;51.964;7.642;2023-06-10T12:46:59;5.07;;;4.03;;
3379;SDS011;1703;51.964;7.642;2023-06-10T12:49:28;6.07;;;5.57;;
3379;SDS011;1703;51.964;7.642;2023-06-10T12:51:54;6.83;;;5.50;;
3379;SDS011;1703;51.964;7.642;2023-06-10T12:54:21;5.37;;;4.93;;
3379;SDS011;1703;51.964;7.642;2023-06-10T12:56:48;5.43;;;4.80;;
3379;SDS011;1703;51.964;7.642;2023-06-10T12:59:15;6.30;;;5.53;;
3379;SDS011;1703;51.964;7.642;2023-06-10T13:01:42;5.40;;;4.90;;
3379;SDS011;1703;51.964;7.642;2023-06-10T13:04:08;6.80;;;6.03;;
3379;SDS011;1703;51.964;7.642;2023-06-10T13:06:38;6.10;;;5.60;;
3379;SDS011;1703;51.964;7.642;2023-06-10T13:09:05;9.47;;;5.60;;
3379;SDS011;1703;51.964;7.642;2023-06-10T13:11:33;7.23;;;5.53;;
3379;SDS011;1703;51.964;7.642;2023-06-10T13:14:01;6.00;;;5.40;;
3379;SDS011;1703;51.964;7.642;2023-06-10T13:16:29;8.27;;;6.23;;
3379;SDS011;1703;51.964;7.642;2023-06-10T13:18:56;21.47;;;6.27;;
3379;SDS011;1703;51.964;7.642;2023-06-10T13:21:24;11.17;;;6.80;;
3379;SDS011;1703;51.964;7.642;2023-06-10T13:23:52;12.93;;;6.43;;
3379;SDS011;1703;51.964;7.642;2023-06-10T13:26:19;6.03;;;5.53;;
3379;SDS011;1703;51.964;7.642;2023-06-10T13:28:46;6.75;;;6.15;;
3379;SDS011;1703;51.964;7.642;2023-06-10T13:31:13;8.43;;;6.13;;
3379;SDS011;1703;51.964;7.642;2023-06-10T13:33:40;6.18;;;5.57;;
3379;SDS011;1703;51.964;7.642;2023-06-10T13:36:08;6.28;;;5.60;;
3379;SDS011;1703;51.964;7.642;2023-06-10T13:38:35;6.30;;;5.75;;
3379;SDS011;1703;51.964;7.642;2023-06-10T13:41:04;8.00;;;5.47;;
3379;SDS011;1703;51.964;7.642;2023-06-10T13:43:31;8.70;;;5.57;;
3379;SDS011;1703;51.964;7.642;2023-06-10T13:45:57;5.38;;;4.90;;
3379;SDS011;1703;51.964;7.642;2023-06-10T13:48:25;6.25;;;5.75;;
3379;SDS011;1703;51.964;7.642;2023-06-10T13:50:52;6.63;;;6.03;;
3379;SDS011;1703;51.964;7.642;2023-06-10T13:53:18;6.43;;;5.82;;
3379;SDS011;1703;51.964;7.642;2023-06-10T13:55:46;6.93;;;5.88;;
3379;SDS011;1703;51.964;7.642;2023-06-10T13:58:14;5.95;;;5.18;;
3379;SDS011;1703;51.964;7.642;2023-06-10T14:00:41;8.00;;;5.80;;
3379;SDS011;1703;51.964;7.642;2023-06-10T14:03:08;6.60;;;5.45;;
3379;SDS011;1703;51.964;7.642;2023-06-10T14:05:35;6.70;;;5.28;;
3379;SDS011;1703;51.964;7.642;2023-06-10T14:08:02;7.20;;;6.32;;
3379;SDS011;1703;51.964;7.642;2023-06-10T14:10:28;6.22;;;5.78;;
3379;SDS011;1703;51.964;7.642;2023-06-10T14:12:55;6.78;;;6.07;;
3379;SDS011;1703;51.964;7.642;2023-06-10T14:15:23;8.32;;;6.30;;
3379;SDS011;1703;51.964;7.642;2023-06-10T14:17:50;7.43;;;6.70;;
3379;SDS011;1703;51.964;7.642;2023-06-10T14:20:17;8.23;;;6.65;;
3379;SDS011;1703;51.964;7.642;2023-06-10T14:22:44;7.75;;;6.05;;
3379;SDS011;1703;51.964;7.642;2023-06-10T14:25:11;15.25;;;6.25;;
3379;SDS011;1703;51.964;7.642;2023-06-10T14:27:38;6.80;;;6.20;;
3379;SDS011;1703;51.964;7.642;2023-06-10T14:30:05;6.20;;;5.60;;
3379;SDS011;1703;51.964;7.642;2023-06-10T14:32:34;8.30;;;6.83;;
3379;SDS011;1703;51.964;7.642;2023-06-10T14:35:01;6.53;;;5.30;;
3379;SDS011;1703;51.964;7.642;2023-06-10T14:37:28;7.77;;;6.23;;
3379;SDS011;1703;51.964;7.642;2023-06-10T14:39:55;11.63;;;6.20;;
3379;SDS011;1703;51.964;7.642;2023-06-10T14:42:21;10.50;;;5.97;;
3379;SDS011;1703;51.964;7.642;2023-06-10T14:44:48;7.20;;;6.40;;
3379;SDS011;1703;51.964;7.642;2023-06-10T14:47:15;7.77;;;6.40;;
3379;SDS011;1703;51.964;7.642;2023-06-10T14:49:43;9.40;;;6.30;;
3379;SDS011;1703;51.964;7.642;2023-06-10T14:52:10;8.80;;;6.53;;
3379;SDS011;1703;51.964;7.642;2023-06-10T14:54:37;7.87;;;5.93;;
3379;SDS011;1703;51.964;7.642;2023-06-10T14:57:04;6.63;;;6.03;;
3379;SDS011;1703;51.964;7.642;2023-06-10T14:59:32;6.47;;;5.87;;
3379;SDS011;1703;51.964;7.642;2023-06-10T15:01:59;10.53;;;7.50;;
3379;SDS011;1703;51.964;7.642;2023-06-10T15:04:26;6.53;;;5.93;;
3379;SDS011;1703;51.964;7.642;2023-06-10T15:06:54;7.37;;;6.67;;
3379;SDS011;1703;51.964;7.642;2023-06-10T15:09:21;8.43;;;6.20;;
3379;SDS011;1703;51.964;7.642;2023-06-10T15:11:48;8.80;;;6.70;;
3379;SDS011;1703;51.964;7.642;2023-06-10T15:14:15;7.80;;;6.97;;
3379;SDS011;1703;51.964;7.642;2023-06-10T15:16:41;6.40;;;5.80;;
3379;SDS011;1703;51.964;7.642;2023-06-10T15:19:08;7.23;;;6.53;;
3379;SDS011;1703;51.964;7.642;2023-06-10T15:21:35;6.10;;;5.43;;
3379;SDS011;1703;51.964;7.642;2023-06-10T15:24:04;7.70;;;6.23;;
3379;SDS011;1703;51.964;7.642;2023-06-10T15:26:31;10.53;;;6.83;;
3379;SDS011;1703;51.964;7.642;2023-06-10T15:28:58;7.23;;;6.63;;
3379;SDS011;1703;51.964;7.642;2023-06-10T15:31:28;7.60;;;6.43;;